Aérodrome :
LOGIN :

S'inscrire | Disclaimer

   EN    FR    IT 

 










Légende :    VFR   VFR Marginal   IFR   IFR Intensif   IFR Très Intensif
Visi : 
Plafond : 
>= 8 km
>= 3000ft
5 à 8 km
1000 à 3000 ft
1500m à 5 km
500 à 1000 ft
800 à 1500m
200 à 500 ft
< 800m
< 200 ft
Symboles :   Orages  Brouillard  Fortes neiges  Fortes précipitations  Vent > 20 kt
SIGMETs :   Divers  Orages  Givrage  Turbulence  Onde Orograph.  Cendres Volcan.







- Altitude de l'aérodrome : 287 ft
- Voir les cartes d'approche


LFRL - Lanveoc Poulmic

DERNIER METAR :
  • 140630Z AUTO 25003KT 4700 -DZ BR OVC005 16/15 Q1020 TEMPO 9999 NSW

METARs EXPIRÉS :
  • 140600Z AUTO 28004KT 9999 BKN007 OVC011 16/15 Q1020 NOSIG
  • 140530Z AUTO 30006KT 9999 OVC010 16/15 Q1019 NOSIG
  • 140500Z AUTO 31004KT 9999 OVC014 16/14 Q1019
  • 140430Z AUTO 31007KT 9999 BKN016 OVC022 16/14 Q1019
  • 140400Z AUTO 31007KT 9999 SCT017 OVC022 16/14 Q1019 TEMPO 0800 BCFG VV///

TAF TAF LFRL
Valide du 14 à 06h jusqu'au 15 à 06h UTC


140500Z 1406/1506 29007KT 9999 SCT010 OVC015
BECMG 1406/1408 BKN005 OVC010
TEMPO 1408/1412 3000 RADZ BR BKN003
PROB30
TEMPO 1409/1411 0800 BCFG VV///
BECMG 1414/1416 SCT010 BKN015
TEMPO 1423/1506 BKN005 OVC010
PROB40
TEMPO 1502/1506 3000 BR
Pas de NOTAMs connus pour ce terrain.



MET'MAP, la Météo Aéronautique d'un coup d'oeil ! - Copyright ORBIFLY Décembre 2007 - Disclaimer

ORBIFLY MET'MAP TEAM :

Programmation & Développement : Alexandra Zaïnal
Conception & Développement : Baudouin d'Aumeries
Co-Programmation & Développement : Marc-Olivier Méhu
Soutien technique & logistique : Manuel Goepfert

Contact : metmap@orbifly.com




SOURCES & CREDITS :

   NOAA